Norfolk International, VA

9:03 PM EST on January 19, 2019 (GMT -0500)
Norfolk International | | Change Station
Active Advisory: Wind Advisory

Elev 23 ft 36.89 °N, 76.20 °W | Updated 12 minutes ago

Overcast
Overcast
55 °F
Feels Like 55 °F
N
10
Wind Variable Wind from SSE

Today
High -- | Low -- °F
--% Chance of Precip.
Yesterday
High -- | Low -- °F
Precip. -- in
Pressure 29.76 in
Visibility 10.0 miles
Clouds Mostly Cloudy 700 ft
Overcast 1400 ft
Dew Point 54 °F
Humidity 96%
Rainfall 0.00 in
Snow Depth Not available.
7:15 AM 5:15 PM
Waxing Gibbous, 98% visible
METAR KORF 200151Z 15009KT 10SM BKN007 OVC014 13/12 A2976 RMK AO2 PRESFR SLP077 T01280122
Pressure 29.76 in
Visibility 10.0 miles
Clouds Mostly Cloudy 700 ft
Overcast 1400 ft
Dew Point 54 °F
Humidity 96%
Rainfall 0.00 in
Snow Depth Not available.
7:15 AM 5:15 PM
Waxing Gibbous, 98% visible
METAR KORF 200151Z 15009KT 10SM BKN007 OVC014 13/12 A2976 RMK AO2 PRESFR SLP077 T01280122

Get Your Daily Forecast Email!

Thanks for signing up!

Be on the lookout for a verification email in your inbox.

You'll start receiving severe weather alerts in your inbox..

×

10-Day Weather Forecast

Almanac

Astronomy

Jan. 19, 2019 Rise Set
Actual Time
Civil Twilight
Nautical Twilight
Astronomical Twilight
Moon
Length of Visible Light
Length of Day
Tomorrow will be .
, % of the Moon is Illuminated

Today's Extremes

State Highs State Lows

Community

WunderPhotos

Category 6

Welcome to Category 6. This is the collective home for Weather Underground's featured writeups by Dr. Jeff Masters (right), Bob Henson (left), Chris Burt, and other regular contributors.

Nearby

Air Quality

  Air Quality AQ Index Pollutant
Not available.

Snow Depth

Station Depth Elevation

Earthquake Activity

City Distance Mag. Time & Date
Minimum magnitude displayed is 2.5.

Coastal Water Temperatures

Place Temperature

Stations

Nearby Weather Stations

Station Location Temp. Windchill Dew Point Humidity Wind Precip. Elev Updated Type
                   

Watches & Warnings

Wind Advisory
Issued: 3:27 PM EST Jan. 19, 2019 – National Weather Service

... Wind Advisory in effect from noon to 10 PM EST Sunday...

The National Weather Service in Wakefield has issued a Wind
Advisory, which is in effect from noon to 10 PM EST Sunday.

* Areas affected: coastal southeast Virginia and northeast North
Carolina.

* Winds: northwest at 25 to 35 mph with gusts of 40 to 50 mph.

* Timing: Sunday afternoon and evening.

* Impacts: strong winds may blow down limbs, trees, and power
lines. Isolated power outages will be possible.

Precautionary/preparedness actions...

A Wind Advisory is issued when sustained winds are forecast to be
31 to 39 mph or gusts will range between 46 and 57 mph. Winds of
these magnitudes may cause minor property damage without extra
precautions. Motorists in high profile vehicles should use caution
until the winds subside.